sensor_id;sensor_type;location;lat;lon;timestamp;temperature;humidity
1075;DHT22;526;51.392;12.448;2023-03-11T00:01:49;1.40;97.30
1075;DHT22;526;51.392;12.448;2023-03-11T00:04:14;1.40;97.30
1075;DHT22;526;51.392;12.448;2023-03-11T00:06:40;1.30;97.30
1075;DHT22;526;51.392;12.448;2023-03-11T00:09:05;1.30;97.30
1075;DHT22;526;51.392;12.448;2023-03-11T00:11:31;1.30;97.30
1075;DHT22;526;51.392;12.448;2023-03-11T00:13:56;1.30;97.30
1075;DHT22;526;51.392;12.448;2023-03-11T00:16:22;1.30;97.30
1075;DHT22;526;51.392;12.448;2023-03-11T00:18:51;1.30;97.30
1075;DHT22;526;51.392;12.448;2023-03-11T00:21:17;1.30;97.30
1075;DHT22;526;51.392;12.448;2023-03-11T00:23:44;1.20;97.30
1075;DHT22;526;51.392;12.448;2023-03-11T00:26:10;1.20;97.30
1075;DHT22;526;51.392;12.448;2023-03-11T00:28:36;1.30;97.30
1075;DHT22;526;51.392;12.448;2023-03-11T00:31:02;1.30;97.30
1075;DHT22;526;51.392;12.448;2023-03-11T00:33:28;1.30;97.30
1075;DHT22;526;51.392;12.448;2023-03-11T00:35:53;1.20;97.30
1075;DHT22;526;51.392;12.448;2023-03-11T00:38:19;1.20;97.30
1075;DHT22;526;51.392;12.448;2023-03-11T00:40:46;1.20;97.30
1075;DHT22;526;51.392;12.448;2023-03-11T00:43:12;1.20;97.30
1075;DHT22;526;51.392;12.448;2023-03-11T00:45:38;1.10;97.30
1075;DHT22;526;51.392;12.448;2023-03-11T00:48:05;1.20;97.30
1075;DHT22;526;51.392;12.448;2023-03-11T00:50:33;1.10;97.30
1075;DHT22;526;51.392;12.448;2023-03-11T00:52:59;1.10;97.30
1075;DHT22;526;51.392;12.448;2023-03-11T00:55:28;1.10;97.30
1075;DHT22;526;51.392;12.448;2023-03-11T00:57:56;1.00;97.30
1075;DHT22;526;51.392;12.448;2023-03-11T01:00:23;1.00;97.30
1075;DHT22;526;51.392;12.448;2023-03-11T01:02:49;1.00;97.30
1075;DHT22;526;51.392;12.448;2023-03-11T01:05:18;1.00;97.30
1075;DHT22;526;51.392;12.448;2023-03-11T01:07:44;1.00;97.30
1075;DHT22;526;51.392;12.448;2023-03-11T01:10:10;1.00;97.30
1075;DHT22;526;51.392;12.448;2023-03-11T01:12:36;1.00;97.30
1075;DHT22;526;51.392;12.448;2023-03-11T01:15:03;1.00;97.30
1075;DHT22;526;51.392;12.448;2023-03-11T01:17:28;1.00;97.30
1075;DHT22;526;51.392;12.448;2023-03-11T01:19:54;1.00;97.30
1075;DHT22;526;51.392;12.448;2023-03-11T01:22:19;1.00;97.30
1075;DHT22;526;51.392;12.448;2023-03-11T01:24:45;1.00;97.30
1075;DHT22;526;51.392;12.448;2023-03-11T01:27:10;1.00;97.30
1075;DHT22;526;51.392;12.448;2023-03-11T01:29:36;1.00;97.30
1075;DHT22;526;51.392;12.448;2023-03-11T01:32:01;1.00;97.30
1075;DHT22;526;51.392;12.448;2023-03-11T01:34:27;1.00;97.30
1075;DHT22;526;51.392;12.448;2023-03-11T01:36:52;1.00;97.30
1075;DHT22;526;51.392;12.448;2023-03-11T01:39:17;1.00;97.30
1075;DHT22;526;51.392;12.448;2023-03-11T01:41:43;1.00;97.30
1075;DHT22;526;51.392;12.448;2023-03-11T01:44:12;0.90;97.30
1075;DHT22;526;51.392;12.448;2023-03-11T01:49:22;1.00;97.30
1075;DHT22;526;51.392;12.448;2023-03-11T01:51:51;1.00;97.30
1075;DHT22;526;51.392;12.448;2023-03-11T01:54:19;0.90;97.30
1075;DHT22;526;51.392;12.448;2023-03-11T01:56:46;1.00;97.30
1075;DHT22;526;51.392;12.448;2023-03-11T01:59:16;0.90;97.30
1075;DHT22;526;51.392;12.448;2023-03-11T02:02:25;0.90;97.30
1075;DHT22;526;51.392;12.448;2023-03-11T02:05:13;0.90;97.30
1075;DHT22;526;51.392;12.448;2023-03-11T02:08:02;0.90;97.30
1075;DHT22;526;51.392;12.448;2023-03-11T02:10:33;0.90;97.30
1075;DHT22;526;51.392;12.448;2023-03-11T02:13:05;0.90;97.30
1075;DHT22;526;51.392;12.448;2023-03-11T02:15:34;0.90;97.30
1075;DHT22;526;51.392;12.448;2023-03-11T02:18:14;0.90;97.30
1075;DHT22;526;51.392;12.448;2023-03-11T02:21:17;0.90;97.30
1075;DHT22;526;51.392;12.448;2023-03-11T02:24:27;0.90;97.30
1075;DHT22;526;51.392;12.448;2023-03-11T02:27:07;0.80;97.30
1075;DHT22;526;51.392;12.448;2023-03-11T02:29:54;0.80;97.30
1075;DHT22;526;51.392;12.448;2023-03-11T02:33:08;0.80;97.30
1075;DHT22;526;51.392;12.448;2023-03-11T02:35:53;0.80;97.30
1075;DHT22;526;51.392;12.448;2023-03-11T02:38:22;0.80;97.30
1075;DHT22;526;51.392;12.448;2023-03-11T02:40:58;0.80;97.30
1075;DHT22;526;51.392;12.448;2023-03-11T02:43:37;0.80;97.30
1075;DHT22;526;51.392;12.448;2023-03-11T02:46:05;0.80;97.30
1075;DHT22;526;51.392;12.448;2023-03-11T02:48:31;0.80;97.30
1075;DHT22;526;51.392;12.448;2023-03-11T02:50:58;0.80;97.30
1075;DHT22;526;51.392;12.448;2023-03-11T02:53:25;0.80;97.30
1075;DHT22;526;51.392;12.448;2023-03-11T02:55:51;0.80;97.30
1075;DHT22;526;51.392;12.448;2023-03-11T02:58:17;0.80;97.30
1075;DHT22;526;51.392;12.448;2023-03-11T03:00:42;0.80;97.30
1075;DHT22;526;51.392;12.448;2023-03-11T03:03:08;0.80;97.30
1075;DHT22;526;51.392;12.448;2023-03-11T03:05:34;0.80;97.30
1075;DHT22;526;51.392;12.448;2023-03-11T03:08:00;0.80;97.30
1075;DHT22;526;51.392;12.448;2023-03-11T03:10:27;0.80;97.30
1075;DHT22;526;51.392;12.448;2023-03-11T03:12:52;0.80;97.30
1075;DHT22;526;51.392;12.448;2023-03-11T03:15:18;0.80;97.30
1075;DHT22;526;51.392;12.448;2023-03-11T03:17:44;0.80;97.30
1075;DHT22;526;51.392;12.448;2023-03-11T03:20:11;0.80;97.30
1075;DHT22;526;51.392;12.448;2023-03-11T03:22:39;0.80;97.30
1075;DHT22;526;51.392;12.448;2023-03-11T03:25:05;0.80;97.30
1075;DHT22;526;51.392;12.448;2023-03-11T03:27:31;0.80;97.30
1075;DHT22;526;51.392;12.448;2023-03-11T03:29:57;0.80;97.30
1075;DHT22;526;51.392;12.448;2023-03-11T03:32:23;0.80;97.30
1075;DHT22;526;51.392;12.448;2023-03-11T03:34:48;0.80;97.30
1075;DHT22;526;51.392;12.448;2023-03-11T03:37:14;0.90;97.30
1075;DHT22;526;51.392;12.448;2023-03-11T03:39:39;0.80;97.30
1075;DHT22;526;51.392;12.448;2023-03-11T03:42:05;0.90;97.30
1075;DHT22;526;51.392;12.448;2023-03-11T03:44:30;0.90;97.30
1075;DHT22;526;51.392;12.448;2023-03-11T03:46:56;0.90;97.30
1075;DHT22;526;51.392;12.448;2023-03-11T03:49:21;0.90;97.30
1075;DHT22;526;51.392;12.448;2023-03-11T03:51:47;0.90;97.30
1075;DHT22;526;51.392;12.448;2023-03-11T03:54:13;0.90;97.30
1075;DHT22;526;51.392;12.448;2023-03-11T03:56:39;0.90;97.30
1075;DHT22;526;51.392;12.448;2023-03-11T03:59:04;0.90;97.30
1075;DHT22;526;51.392;12.448;2023-03-11T04:01:30;0.90;97.30
1075;DHT22;526;51.392;12.448;2023-03-11T04:03:55;0.90;97.30
1075;DHT22;526;51.392;12.448;2023-03-11T04:06:23;0.80;97.30
1075;DHT22;526;51.392;12.448;2023-03-11T04:08:51;0.90;97.30
1075;DHT22;526;51.392;12.448;2023-03-11T04:11:17;0.80;97.30
1075;DHT22;526;51.392;12.448;2023-03-11T04:13:43;0.80;97.30
1075;DHT22;526;51.392;12.448;2023-03-11T04:16:11;0.80;97.30
1075;DHT22;526;51.392;12.448;2023-03-11T04:18:39;0.80;97.30
1075;DHT22;526;51.392;12.448;2023-03-11T04:21:05;0.80;97.30
1075;DHT22;526;51.392;12.448;2023-03-11T04:23:31;0.80;97.30
1075;DHT22;526;51.392;12.448;2023-03-11T04:25:57;0.80;97.30
1075;DHT22;526;51.392;12.448;2023-03-11T04:28:23;0.80;97.30
1075;DHT22;526;51.392;12.448;2023-03-11T04:30:49;0.80;97.30
1075;DHT22;526;51.392;12.448;2023-03-11T04:33:14;0.80;97.30
1075;DHT22;526;51.392;12.448;2023-03-11T04:35:39;0.80;97.30
1075;DHT22;526;51.392;12.448;2023-03-11T04:38:05;0.80;97.30
1075;DHT22;526;51.392;12.448;2023-03-11T04:40:31;0.80;97.30
1075;DHT22;526;51.392;12.448;2023-03-11T04:42:56;0.80;97.30
1075;DHT22;526;51.392;12.448;2023-03-11T04:45:22;0.80;97.30
1075;DHT22;526;51.392;12.448;2023-03-11T04:47:49;0.80;97.30
1075;DHT22;526;51.392;12.448;2023-03-11T04:50:15;0.80;97.30
1075;DHT22;526;51.392;12.448;2023-03-11T04:52:41;0.80;97.30
1075;DHT22;526;51.392;12.448;2023-03-11T04:55:07;0.80;97.30
1075;DHT22;526;51.392;12.448;2023-03-11T04:57:32;0.80;97.30
1075;DHT22;526;51.392;12.448;2023-03-11T04:59:58;0.80;97.30
1075;DHT22;526;51.392;12.448;2023-03-11T05:02:23;0.80;97.30
1075;DHT22;526;51.392;12.448;2023-03-11T05:04:49;0.80;97.30
1075;DHT22;526;51.392;12.448;2023-03-11T05:07:14;0.80;97.30
1075;DHT22;526;51.392;12.448;2023-03-11T05:09:40;0.80;97.30
1075;DHT22;526;51.392;12.448;2023-03-11T05:12:10;0.80;97.30
1075;DHT22;526;51.392;12.448;2023-03-11T05:14:43;0.80;97.30
1075;DHT22;526;51.392;12.448;2023-03-11T05:17:09;0.90;97.30
1075;DHT22;526;51.392;12.448;2023-03-11T05:19:36;0.90;97.30
1075;DHT22;526;51.392;12.448;2023-03-11T05:22:06;0.90;97.30
1075;DHT22;526;51.392;12.448;2023-03-11T05:24:32;0.90;97.30
1075;DHT22;526;51.392;12.448;2023-03-11T05:26:58;0.90;97.30
1075;DHT22;526;51.392;12.448;2023-03-11T05:29:24;0.90;97.30
1075;DHT22;526;51.392;12.448;2023-03-11T05:31:50;0.90;97.30
1075;DHT22;526;51.392;12.448;2023-03-11T05:34:16;0.90;97.30
1075;DHT22;526;51.392;12.448;2023-03-11T05:36:42;0.90;97.30
1075;DHT22;526;51.392;12.448;2023-03-11T05:39:08;0.90;97.30
1075;DHT22;526;51.392;12.448;2023-03-11T05:41:33;0.90;97.30
1075;DHT22;526;51.392;12.448;2023-03-11T05:43:59;0.90;97.30
1075;DHT22;526;51.392;12.448;2023-03-11T05:46:25;0.90;97.30
1075;DHT22;526;51.392;12.448;2023-03-11T05:48:50;0.90;97.30
1075;DHT22;526;51.392;12.448;2023-03-11T05:51:16;0.90;97.30
1075;DHT22;526;51.392;12.448;2023-03-11T05:53:46;0.90;97.30
1075;DHT22;526;51.392;12.448;2023-03-11T05:56:18;0.90;97.30
1075;DHT22;526;51.392;12.448;2023-03-11T05:58:43;0.90;97.30
1075;DHT22;526;51.392;12.448;2023-03-11T06:01:12;0.90;97.30
1075;DHT22;526;51.392;12.448;2023-03-11T06:03:39;0.90;97.30
1075;DHT22;526;51.392;12.448;2023-03-11T06:06:06;0.90;97.30
1075;DHT22;526;51.392;12.448;2023-03-11T06:08:33;0.90;97.30
1075;DHT22;526;51.392;12.448;2023-03-11T06:11:07;0.90;97.30
1075;DHT22;526;51.392;12.448;2023-03-11T06:13:33;0.90;97.30
1075;DHT22;526;51.392;12.448;2023-03-11T06:15:59;0.90;97.30
1075;DHT22;526;51.392;12.448;2023-03-11T06:18:24;0.90;97.30
1075;DHT22;526;51.392;12.448;2023-03-11T06:20:55;0.90;97.30
1075;DHT22;526;51.392;12.448;2023-03-11T06:23:22;0.90;97.30
1075;DHT22;526;51.392;12.448;2023-03-11T06:26:16;0.90;97.30
1075;DHT22;526;51.392;12.448;2023-03-11T06:28:42;0.90;97.30
1075;DHT22;526;51.392;12.448;2023-03-11T06:31:10;0.90;97.30
1075;DHT22;526;51.392;12.448;2023-03-11T06:33:36;0.90;97.30
1075;DHT22;526;51.392;12.448;2023-03-11T06:36:03;0.80;97.30
1075;DHT22;526;51.392;12.448;2023-03-11T06:38:29;0.90;97.30
1075;DHT22;526;51.392;12.448;2023-03-11T06:40:59;0.90;97.30
1075;DHT22;526;51.392;12.448;2023-03-11T06:43:28;0.90;97.30
1075;DHT22;526;51.392;12.448;2023-03-11T06:45:57;0.90;97.30
1075;DHT22;526;51.392;12.448;2023-03-11T06:48:25;0.90;97.30
1075;DHT22;526;51.392;12.448;2023-03-11T06:51:23;0.90;97.30
1075;DHT22;526;51.392;12.448;2023-03-11T06:53:56;0.90;97.30
1075;DHT22;526;51.392;12.448;2023-03-11T06:56:37;0.90;97.30
1075;DHT22;526;51.392;12.448;2023-03-11T06:59:34;0.90;97.30
1075;DHT22;526;51.392;12.448;2023-03-11T07:02:06;0.90;97.30
1075;DHT22;526;51.392;12.448;2023-03-11T07:04:34;0.90;97.30
1075;DHT22;526;51.392;12.448;2023-03-11T07:07:06;0.90;97.30
1075;DHT22;526;51.392;12.448;2023-03-11T07:10:00;0.90;97.30
1075;DHT22;526;51.392;12.448;2023-03-11T07:12:46;0.90;97.30
1075;DHT22;526;51.392;12.448;2023-03-11T07:15:46;0.90;97.30
1075;DHT22;526;51.392;12.448;2023-03-11T07:18:45;0.90;97.30
1075;DHT22;526;51.392;12.448;2023-03-11T07:24:24;1.00;97.30
1075;DHT22;526;51.392;12.448;2023-03-11T07:27:13;1.00;97.30
1075;DHT22;526;51.392;12.448;2023-03-11T07:29:55;1.00;97.30
1075;DHT22;526;51.392;12.448;2023-03-11T07:32:34;1.00;97.30
1075;DHT22;526;51.392;12.448;2023-03-11T07:35:06;1.00;97.30
1075;DHT22;526;51.392;12.448;2023-03-11T07:37:48;1.00;97.30
1075;DHT22;526;51.392;12.448;2023-03-11T07:40:34;1.00;97.30
1075;DHT22;526;51.392;12.448;2023-03-11T07:43:05;1.00;97.30
1075;DHT22;526;51.392;12.448;2023-03-11T07:45:34;1.00;97.30
1075;DHT22;526;51.392;12.448;2023-03-11T07:48:06;1.00;97.30
1075;DHT22;526;51.392;12.448;2023-03-11T07:50:37;1.00;97.30
1075;DHT22;526;51.392;12.448;2023-03-11T07:56:17;1.10;97.30
1075;DHT22;526;51.392;12.448;2023-03-11T07:58:57;1.10;97.30
1075;DHT22;526;51.392;12.448;2023-03-11T08:01:56;1.10;97.30
1075;DHT22;526;51.392;12.448;2023-03-11T08:04:25;1.10;97.30
1075;DHT22;526;51.392;12.448;2023-03-11T08:07:23;1.10;97.30
1075;DHT22;526;51.392;12.448;2023-03-11T08:09:56;1.20;97.30
1075;DHT22;526;51.392;12.448;2023-03-11T08:12:25;1.20;97.30
1075;DHT22;526;51.392;12.448;2023-03-11T08:14:53;1.30;97.30
1075;DHT22;526;51.392;12.448;2023-03-11T08:17:18;1.30;97.30
1075;DHT22;526;51.392;12.448;2023-03-11T08:19:53;1.30;97.30
1075;DHT22;526;51.392;12.448;2023-03-11T08:22:18;1.30;97.30
1075;DHT22;526;51.392;12.448;2023-03-11T08:24:53;1.40;97.30
1075;DHT22;526;51.392;12.448;2023-03-11T08:27:20;1.40;97.30
1075;DHT22;526;51.392;12.448;2023-03-11T08:29:46;1.40;97.30
1075;DHT22;526;51.392;12.448;2023-03-11T08:32:11;1.40;97.30
1075;DHT22;526;51.392;12.448;2023-03-11T08:34:37;1.40;97.30
1075;DHT22;526;51.392;12.448;2023-03-11T08:37:03;1.40;97.30
1075;DHT22;526;51.392;12.448;2023-03-11T08:39:29;1.40;97.30
1075;DHT22;526;51.392;12.448;2023-03-11T08:41:54;1.50;97.30
1075;DHT22;526;51.392;12.448;2023-03-11T08:44:26;1.50;97.30
1075;DHT22;526;51.392;12.448;2023-03-11T08:46:55;1.50;97.30
1075;DHT22;526;51.392;12.448;2023-03-11T08:49:37;1.50;97.30
1075;DHT22;526;51.392;12.448;2023-03-11T08:52:15;1.50;97.30
1075;DHT22;526;51.392;12.448;2023-03-11T08:55:25;1.40;97.30
1075;DHT22;526;51.392;12.448;2023-03-11T08:57:55;1.40;97.30
1075;DHT22;526;51.392;12.448;2023-03-11T09:01:04;1.40;97.30
1075;DHT22;526;51.392;12.448;2023-03-11T09:03:57;1.30;97.30
1075;DHT22;526;51.392;12.448;2023-03-11T09:07:00;1.40;97.30
1075;DHT22;526;51.392;12.448;2023-03-11T09:09:36;1.40;97.30
1075;DHT22;526;51.392;12.448;2023-03-11T09:12:04;1.30;97.30
1075;DHT22;526;51.392;12.448;2023-03-11T09:14:55;1.40;97.30
1075;DHT22;526;51.392;12.448;2023-03-11T09:17:55;1.40;97.30
1075;DHT22;526;51.392;12.448;2023-03-11T09:20:27;1.40;97.30
1075;DHT22;526;51.392;12.448;2023-03-11T09:25:25;1.30;97.30
1075;DHT22;526;51.392;12.448;2023-03-11T09:28:15;1.30;97.30
1075;DHT22;526;51.392;12.448;2023-03-11T09:30:41;1.40;97.30
1075;DHT22;526;51.392;12.448;2023-03-11T09:33:15;1.40;97.30
1075;DHT22;526;51.392;12.448;2023-03-11T09:36:00;1.50;97.30
1075;DHT22;526;51.392;12.448;2023-03-11T09:38:52;1.60;97.30
1075;DHT22;526;51.392;12.448;2023-03-11T09:41:28;1.60;97.30
1075;DHT22;526;51.392;12.448;2023-03-11T09:44:40;1.60;97.30
1075;DHT22;526;51.392;12.448;2023-03-11T09:50:19;1.70;97.30
1075;DHT22;526;51.392;12.448;2023-03-11T09:53:02;1.70;97.30
1075;DHT22;526;51.392;12.448;2023-03-11T09:55:43;1.80;97.30
1075;DHT22;526;51.392;12.448;2023-03-11T09:58:17;1.80;97.30
1075;DHT22;526;51.392;12.448;2023-03-11T10:00:44;1.90;97.30
1075;DHT22;526;51.392;12.448;2023-03-11T10:03:20;2.00;97.30
1075;DHT22;526;51.392;12.448;2023-03-11T10:05:50;1.90;97.30
1075;DHT22;526;51.392;12.448;2023-03-11T10:08:28;1.90;97.30
1075;DHT22;526;51.392;12.448;2023-03-11T10:11:18;1.90;97.30
1075;DHT22;526;51.392;12.448;2023-03-11T10:13:59;2.00;97.30
1075;DHT22;526;51.392;12.448;2023-03-11T10:16:32;2.10;97.30
1075;DHT22;526;51.392;12.448;2023-03-11T10:19:15;2.10;97.30
1075;DHT22;526;51.392;12.448;2023-03-11T10:21:55;2.10;97.30
1075;DHT22;526;51.392;12.448;2023-03-11T10:24:40;2.20;97.30
1075;DHT22;526;51.392;12.448;2023-03-11T10:27:16;2.20;97.30
1075;DHT22;526;51.392;12.448;2023-03-11T10:30:36;2.20;97.30
1075;DHT22;526;51.392;12.448;2023-03-11T10:35:54;2.20;97.30
1075;DHT22;526;51.392;12.448;2023-03-11T10:38:24;2.10;97.30
1075;DHT22;526;51.392;12.448;2023-03-11T10:40:54;2.00;97.30
1075;DHT22;526;51.392;12.448;2023-03-11T10:43:28;1.90;97.30
1075;DHT22;526;51.392;12.448;2023-03-11T10:45:55;1.80;97.30
1075;DHT22;526;51.392;12.448;2023-03-11T10:48:23;1.70;97.30
1075;DHT22;526;51.392;12.448;2023-03-11T10:51:11;1.70;97.30
1075;DHT22;526;51.392;12.448;2023-03-11T10:53:55;1.70;97.30
1075;DHT22;526;51.392;12.448;2023-03-11T10:56:30;1.70;97.30
1075;DHT22;526;51.392;12.448;2023-03-11T10:58:57;1.70;97.30
1075;DHT22;526;51.392;12.448;2023-03-11T11:01:23;1.80;97.30
1075;DHT22;526;51.392;12.448;2023-03-11T11:03:58;1.90;97.30
1075;DHT22;526;51.392;12.448;2023-03-11T11:06:31;1.90;97.30
1075;DHT22;526;51.392;12.448;2023-03-11T11:09:13;1.90;97.30
1075;DHT22;526;51.392;12.448;2023-03-11T11:11:40;2.00;97.30
1075;DHT22;526;51.392;12.448;2023-03-11T11:14:06;1.90;97.30
1075;DHT22;526;51.392;12.448;2023-03-11T11:16:34;2.00;97.30
1075;DHT22;526;51.392;12.448;2023-03-11T11:19:04;2.00;97.30
1075;DHT22;526;51.392;12.448;2023-03-11T11:21:40;2.00;97.30
1075;DHT22;526;51.392;12.448;2023-03-11T11:24:25;2.10;97.30
1075;DHT22;526;51.392;12.448;2023-03-11T11:27:14;2.10;97.30
1075;DHT22;526;51.392;12.448;2023-03-11T11:29:39;2.10;97.30
1075;DHT22;526;51.392;12.448;2023-03-11T11:32:18;2.10;97.30
1075;DHT22;526;51.392;12.448;2023-03-11T11:35:01;2.10;97.30
1075;DHT22;526;51.392;12.448;2023-03-11T11:37:29;2.10;97.30
1075;DHT22;526;51.392;12.448;2023-03-11T11:40:29;2.10;97.30
1075;DHT22;526;51.392;12.448;2023-03-11T11:43:20;2.00;97.30
1075;DHT22;526;51.392;12.448;2023-03-11T11:45:59;2.00;97.30
1075;DHT22;526;51.392;12.448;2023-03-11T11:48:33;2.20;97.30
1075;DHT22;526;51.392;12.448;2023-03-11T11:51:10;2.50;97.30
1075;DHT22;526;51.392;12.448;2023-03-11T11:54:00;2.70;97.30
1075;DHT22;526;51.392;12.448;2023-03-11T11:56:26;3.00;97.30
1075;DHT22;526;51.392;12.448;2023-03-11T11:58:52;3.00;97.30
1075;DHT22;526;51.392;12.448;2023-03-11T12:01:43;3.00;97.30
1075;DHT22;526;51.392;12.448;2023-03-11T12:04:36;3.00;97.30
1075;DHT22;526;51.392;12.448;2023-03-11T12:10:09;3.00;97.30
1075;DHT22;526;51.392;12.448;2023-03-11T12:18:32;2.70;97.30
1075;DHT22;526;51.392;12.448;2023-03-11T12:21:12;2.60;97.30
1075;DHT22;526;51.392;12.448;2023-03-11T12:24:30;2.60;97.30
1075;DHT22;526;51.392;12.448;2023-03-11T12:27:04;2.50;97.30
1075;DHT22;526;51.392;12.448;2023-03-11T12:29:39;2.50;97.30
1075;DHT22;526;51.392;12.448;2023-03-11T12:32:06;2.50;97.30
1075;DHT22;526;51.392;12.448;2023-03-11T12:34:34;2.60;97.30
1075;DHT22;526;51.392;12.448;2023-03-11T12:37:01;2.70;97.30
1075;DHT22;526;51.392;12.448;2023-03-11T12:39:36;2.70;97.30
1075;DHT22;526;51.392;12.448;2023-03-11T12:42:22;2.80;97.30
1075;DHT22;526;51.392;12.448;2023-03-11T12:44:49;2.80;97.30
1075;DHT22;526;51.392;12.448;2023-03-11T12:47:20;2.80;97.30
1075;DHT22;526;51.392;12.448;2023-03-11T12:49:56;2.80;97.30
1075;DHT22;526;51.392;12.448;2023-03-11T12:52:52;2.80;97.30
1075;DHT22;526;51.392;12.448;2023-03-11T13:05:57;2.60;97.30
1075;DHT22;526;51.392;12.448;2023-03-11T13:08:44;2.60;97.30
1075;DHT22;526;51.392;12.448;2023-03-11T13:14:22;2.70;97.30
1075;DHT22;526;51.392;12.448;2023-03-11T13:16:49;2.80;97.30
1075;DHT22;526;51.392;12.448;2023-03-11T13:19:33;2.80;97.30
1075;DHT22;526;51.392;12.448;2023-03-11T13:22:02;2.80;97.30
1075;DHT22;526;51.392;12.448;2023-03-11T13:36:02;3.00;97.30
1075;DHT22;526;51.392;12.448;2023-03-11T13:39:07;3.10;97.30
1075;DHT22;526;51.392;12.448;2023-03-11T13:41:41;3.20;97.30
1075;DHT22;526;51.392;12.448;2023-03-11T13:44:25;3.40;97.30
1075;DHT22;526;51.392;12.448;2023-03-11T13:46:57;3.50;97.30
1075;DHT22;526;51.392;12.448;2023-03-11T13:49:59;3.50;97.30
1075;DHT22;526;51.392;12.448;2023-03-11T13:52:43;3.40;96.30
1075;DHT22;526;51.392;12.448;2023-03-11T13:57:52;3.20;96.40
1075;DHT22;526;51.392;12.448;2023-03-11T14:00:21;3.20;96.90
1075;DHT22;526;51.392;12.448;2023-03-11T14:03:02;3.20;97.10
1075;DHT22;526;51.392;12.448;2023-03-11T14:05:35;3.20;96.80
1075;DHT22;526;51.392;12.448;2023-03-11T14:08:12;3.30;97.30
1075;DHT22;526;51.392;12.448;2023-03-11T14:11:02;3.30;97.00
1075;DHT22;526;51.392;12.448;2023-03-11T14:13:30;3.20;97.20
1075;DHT22;526;51.392;12.448;2023-03-11T14:16:08;3.20;97.30
1075;DHT22;526;51.392;12.448;2023-03-11T14:18:40;3.20;97.30
1075;DHT22;526;51.392;12.448;2023-03-11T14:21:19;3.20;97.30
1075;DHT22;526;51.392;12.448;2023-03-11T14:23:47;3.10;97.30
1075;DHT22;526;51.392;12.448;2023-03-11T14:26:16;3.00;97.30
1075;DHT22;526;51.392;12.448;2023-03-11T14:28:45;3.00;97.30
1075;DHT22;526;51.392;12.448;2023-03-11T14:31:32;2.90;97.30
1075;DHT22;526;51.392;12.448;2023-03-11T14:34:03;2.90;97.30
1075;DHT22;526;51.392;12.448;2023-03-11T14:36:39;2.90;97.30
1075;DHT22;526;51.392;12.448;2023-03-11T14:44:26;2.90;97.30
1075;DHT22;526;51.392;12.448;2023-03-11T14:47:01;3.00;97.30
1075;DHT22;526;51.392;12.448;2023-03-11T14:49:28;3.00;97.30
1075;DHT22;526;51.392;12.448;2023-03-11T14:52:00;3.00;97.30
1075;DHT22;526;51.392;12.448;2023-03-11T14:54:31;2.90;97.30
1075;DHT22;526;51.392;12.448;2023-03-11T14:57:27;2.90;97.30
1075;DHT22;526;51.392;12.448;2023-03-11T14:59:56;2.90;97.30
1075;DHT22;526;51.392;12.448;2023-03-11T15:02:38;2.90;97.30
1075;DHT22;526;51.392;12.448;2023-03-11T15:05:18;2.90;97.30
1075;DHT22;526;51.392;12.448;2023-03-11T15:07:48;2.90;97.30
1075;DHT22;526;51.392;12.448;2023-03-11T15:10:15;2.90;97.30
1075;DHT22;526;51.392;12.448;2023-03-11T15:12:42;2.90;97.30
1075;DHT22;526;51.392;12.448;2023-03-11T15:15:21;2.90;97.30
1075;DHT22;526;51.392;12.448;2023-03-11T15:17:59;3.00;97.30
1075;DHT22;526;51.392;12.448;2023-03-11T15:20:29;3.00;97.10
1075;DHT22;526;51.392;12.448;2023-03-11T15:23:03;3.00;97.00
1075;DHT22;526;51.392;12.448;2023-03-11T15:25:35;3.10;96.90
1075;DHT22;526;51.392;12.448;2023-03-11T15:28:28;3.70;96.60
1075;DHT22;526;51.392;12.448;2023-03-11T15:31:34;4.50;95.70
1075;DHT22;526;51.392;12.448;2023-03-11T15:34:10;4.80;94.00
1075;DHT22;526;51.392;12.448;2023-03-11T15:36:55;5.40;93.20
1075;DHT22;526;51.392;12.448;2023-03-11T15:44:34;6.30;90.30
1075;DHT22;526;51.392;12.448;2023-03-11T15:47:01;6.50;88.90
1075;DHT22;526;51.392;12.448;2023-03-11T15:49:27;6.70;88.80
1075;DHT22;526;51.392;12.448;2023-03-11T15:52:00;6.90;88.30
1075;DHT22;526;51.392;12.448;2023-03-11T15:54:26;7.10;87.00
1075;DHT22;526;51.392;12.448;2023-03-11T15:56:52;7.20;86.50
1075;DHT22;526;51.392;12.448;2023-03-11T15:59:19;7.20;86.40
1075;DHT22;526;51.392;12.448;2023-03-11T16:01:45;7.40;85.90
1075;DHT22;526;51.392;12.448;2023-03-11T16:04:15;7.50;85.80
1075;DHT22;526;51.392;12.448;2023-03-11T16:06:42;7.60;85.00
1075;DHT22;526;51.392;12.448;2023-03-11T16:09:08;7.70;84.60
1075;DHT22;526;51.392;12.448;2023-03-11T16:11:34;7.60;84.60
1075;DHT22;526;51.392;12.448;2023-03-11T16:14:00;7.30;84.90
1075;DHT22;526;51.392;12.448;2023-03-11T16:16:26;6.90;85.90
1075;DHT22;526;51.392;12.448;2023-03-11T16:18:51;6.70;86.60
1075;DHT22;526;51.392;12.448;2023-03-11T16:21:19;6.40;86.60
1075;DHT22;526;51.392;12.448;2023-03-11T16:23:46;5.90;87.60
1075;DHT22;526;51.392;12.448;2023-03-11T16:26:12;5.50;89.00
1075;DHT22;526;51.392;12.448;2023-03-11T16:28:46;5.00;90.10
1075;DHT22;526;51.392;12.448;2023-03-11T16:31:46;4.70;91.20
1075;DHT22;526;51.392;12.448;2023-03-11T16:34:56;4.30;91.70
1075;DHT22;526;51.392;12.448;2023-03-11T16:37:28;4.10;92.60
1075;DHT22;526;51.392;12.448;2023-03-11T16:40:06;3.90;93.30
1075;DHT22;526;51.392;12.448;2023-03-11T16:48:46;3.50;94.30
1075;DHT22;526;51.392;12.448;2023-03-11T16:51:37;3.40;94.20
1075;DHT22;526;51.392;12.448;2023-03-11T16:56:46;3.10;94.20
1075;DHT22;526;51.392;12.448;2023-03-11T16:59:49;3.10;94.50
1075;DHT22;526;51.392;12.448;2023-03-11T17:02:38;3.00;94.60
1075;DHT22;526;51.392;12.448;2023-03-11T17:05:07;3.00;94.90
1075;DHT22;526;51.392;12.448;2023-03-11T17:07:47;2.90;95.00
1075;DHT22;526;51.392;12.448;2023-03-11T17:10:38;2.80;95.00
1075;DHT22;526;51.392;12.448;2023-03-11T17:13:56;2.80;95.40
1075;DHT22;526;51.392;12.448;2023-03-11T17:16:48;2.70;95.70
1075;DHT22;526;51.392;12.448;2023-03-11T17:23:07;2.60;95.90
1075;DHT22;526;51.392;12.448;2023-03-11T17:26:09;2.60;95.80
1075;DHT22;526;51.392;12.448;2023-03-11T17:29:15;2.50;95.90
1075;DHT22;526;51.392;12.448;2023-03-11T17:31:46;2.50;96.20
1075;DHT22;526;51.392;12.448;2023-03-11T17:34:37;2.40;96.40
1075;DHT22;526;51.392;12.448;2023-03-11T17:37:05;2.40;96.90
1075;DHT22;526;51.392;12.448;2023-03-11T17:39:53;2.30;96.70
1075;DHT22;526;51.392;12.448;2023-03-11T17:42:26;2.30;96.80
1075;DHT22;526;51.392;12.448;2023-03-11T17:44:58;2.20;96.70
1075;DHT22;526;51.392;12.448;2023-03-11T17:47:27;2.20;96.90
1075;DHT22;526;51.392;12.448;2023-03-11T17:50:28;2.10;97.20
1075;DHT22;526;51.392;12.448;2023-03-11T17:53:26;2.10;97.30
1075;DHT22;526;51.392;12.448;2023-03-11T17:56:18;2.00;97.10
1075;DHT22;526;51.392;12.448;2023-03-11T17:59:07;1.90;97.10
1075;DHT22;526;51.392;12.448;2023-03-11T18:02:06;1.90;97.20
1075;DHT22;526;51.392;12.448;2023-03-11T18:04:58;1.80;97.30
1075;DHT22;526;51.392;12.448;2023-03-11T18:14:56;1.50;97.30
1075;DHT22;526;51.392;12.448;2023-03-11T18:17:28;1.30;97.30
1075;DHT22;526;51.392;12.448;2023-03-11T18:19:57;1.30;97.30
1075;DHT22;526;51.392;12.448;2023-03-11T18:22:26;1.20;97.30
1075;DHT22;526;51.392;12.448;2023-03-11T18:24:58;1.20;97.30
1075;DHT22;526;51.392;12.448;2023-03-11T18:30:37;1.00;97.30